sensor_id;sensor_type;location;lat;lon;timestamp;temperature;humidity
17146;DHT22;8688;54.444;18.444;2023-11-21T00:03:59;0.80;1.00
17146;DHT22;8688;54.444;18.444;2023-11-21T00:06:27;0.80;1.00
17146;DHT22;8688;54.444;18.444;2023-11-21T00:08:58;0.70;99.90
17146;DHT22;8688;54.444;18.444;2023-11-21T00:11:26;0.80;1.00
17146;DHT22;8688;54.444;18.444;2023-11-21T00:13:55;0.70;99.90
17146;DHT22;8688;54.444;18.444;2023-11-21T00:16:24;0.70;18.30
17146;DHT22;8688;54.444;18.444;2023-11-21T00:18:53;0.70;1.00
17146;DHT22;8688;54.444;18.444;2023-11-21T00:21:21;0.70;1.00
17146;DHT22;8688;54.444;18.444;2023-11-21T00:23:48;0.70;1.00
17146;DHT22;8688;54.444;18.444;2023-11-21T00:26:18;0.70;1.00
17146;DHT22;8688;54.444;18.444;2023-11-21T00:28:46;0.70;1.00
17146;DHT22;8688;54.444;18.444;2023-11-21T00:31:14;0.70;1.00
17146;DHT22;8688;54.444;18.444;2023-11-21T00:33:41;0.70;1.00
17146;DHT22;8688;54.444;18.444;2023-11-21T00:36:09;0.70;99.90
17146;DHT22;8688;54.444;18.444;2023-11-21T00:38:38;0.60;1.00
17146;DHT22;8688;54.444;18.444;2023-11-21T00:41:06;0.60;1.00
17146;DHT22;8688;54.444;18.444;2023-11-21T00:43:36;0.60;99.90
17146;DHT22;8688;54.444;18.444;2023-11-21T00:46:05;0.50;1.00
17146;DHT22;8688;54.444;18.444;2023-11-21T00:48:33;0.50;1.00
17146;DHT22;8688;54.444;18.444;2023-11-21T00:51:01;0.50;1.00
17146;DHT22;8688;54.444;18.444;2023-11-21T00:53:29;0.50;99.90
17146;DHT22;8688;54.444;18.444;2023-11-21T00:55:58;0.50;1.00
17146;DHT22;8688;54.444;18.444;2023-11-21T00:58:25;0.50;1.00
17146;DHT22;8688;54.444;18.444;2023-11-21T01:00:55;0.60;99.90
17146;DHT22;8688;54.444;18.444;2023-11-21T01:03:24;0.60;99.90
17146;DHT22;8688;54.444;18.444;2023-11-21T01:05:52;0.60;99.90
17146;DHT22;8688;54.444;18.444;2023-11-21T01:08:20;0.60;1.00
17146;DHT22;8688;54.444;18.444;2023-11-21T01:10:49;0.60;1.00
17146;DHT22;8688;54.444;18.444;2023-11-21T01:13:17;0.60;1.00
17146;DHT22;8688;54.444;18.444;2023-11-21T01:15:45;0.70;1.00
17146;DHT22;8688;54.444;18.444;2023-11-21T01:18:14;0.70;1.00
17146;DHT22;8688;54.444;18.444;2023-11-21T01:20:41;0.70;99.90
17146;DHT22;8688;54.444;18.444;2023-11-21T01:23:10;0.70;99.90
17146;DHT22;8688;54.444;18.444;2023-11-21T01:25:37;0.70;99.90
17146;DHT22;8688;54.444;18.444;2023-11-21T01:28:05;0.70;1.00
17146;DHT22;8688;54.444;18.444;2023-11-21T01:30:33;0.70;1.00
17146;DHT22;8688;54.444;18.444;2023-11-21T01:33:03;0.70;1.00
17146;DHT22;8688;54.444;18.444;2023-11-21T01:35:32;0.80;1.00
17146;DHT22;8688;54.444;18.444;2023-11-21T01:38:00;0.80;99.90
17146;DHT22;8688;54.444;18.444;2023-11-21T01:40:30;0.80;99.90
17146;DHT22;8688;54.444;18.444;2023-11-21T01:42:58;0.80;1.00
17146;DHT22;8688;54.444;18.444;2023-11-21T01:45:26;0.90;1.00
17146;DHT22;8688;54.444;18.444;2023-11-21T01:47:57;1.00;1.00
17146;DHT22;8688;54.444;18.444;2023-11-21T01:50:26;1.00;1.00
17146;DHT22;8688;54.444;18.444;2023-11-21T01:52:57;1.10;68.10
17146;DHT22;8688;54.444;18.444;2023-11-21T01:55:25;1.10;99.90
17146;DHT22;8688;54.444;18.444;2023-11-21T01:57:53;1.20;1.00
17146;DHT22;8688;54.444;18.444;2023-11-21T02:00:22;1.20;1.00
17146;DHT22;8688;54.444;18.444;2023-11-21T02:02:50;1.20;19.20
17146;DHT22;8688;54.444;18.444;2023-11-21T02:05:17;1.30;1.00
17146;DHT22;8688;54.444;18.444;2023-11-21T02:07:51;1.30;1.00
17146;DHT22;8688;54.444;18.444;2023-11-21T02:10:20;1.30;1.00
17146;DHT22;8688;54.444;18.444;2023-11-21T02:12:49;1.30;1.00
17146;DHT22;8688;54.444;18.444;2023-11-21T02:15:18;1.30;1.00
17146;DHT22;8688;54.444;18.444;2023-11-21T02:17:48;1.30;99.90
17146;DHT22;8688;54.444;18.444;2023-11-21T02:20:18;1.30;99.90
17146;DHT22;8688;54.444;18.444;2023-11-21T02:22:50;1.30;99.90
17146;DHT22;8688;54.444;18.444;2023-11-21T02:25:24;1.30;99.90
17146;DHT22;8688;54.444;18.444;2023-11-21T02:27:53;1.30;99.90
17146;DHT22;8688;54.444;18.444;2023-11-21T02:30:21;1.30;1.00
17146;DHT22;8688;54.444;18.444;2023-11-21T02:32:51;1.30;1.00
17146;DHT22;8688;54.444;18.444;2023-11-21T02:35:20;1.40;1.00
17146;DHT22;8688;54.444;18.444;2023-11-21T02:37:50;1.40;1.00
17146;DHT22;8688;54.444;18.444;2023-11-21T02:40:20;1.40;1.00
17146;DHT22;8688;54.444;18.444;2023-11-21T02:42:49;1.40;99.90
17146;DHT22;8688;54.444;18.444;2023-11-21T02:45:20;1.40;1.00
17146;DHT22;8688;54.444;18.444;2023-11-21T02:47:48;1.40;1.00
17146;DHT22;8688;54.444;18.444;2023-11-21T02:50:16;1.40;99.90
17146;DHT22;8688;54.444;18.444;2023-11-21T02:52:46;1.40;99.90
17146;DHT22;8688;54.444;18.444;2023-11-21T02:55:15;1.40;1.00
17146;DHT22;8688;54.444;18.444;2023-11-21T02:57:43;1.40;99.90
17146;DHT22;8688;54.444;18.444;2023-11-21T03:00:11;1.50;99.90
17146;DHT22;8688;54.444;18.444;2023-11-21T03:02:41;1.40;95.30
17146;DHT22;8688;54.444;18.444;2023-11-21T03:05:09;1.40;71.10
17146;DHT22;8688;54.444;18.444;2023-11-21T03:07:37;1.40;1.00
17146;DHT22;8688;54.444;18.444;2023-11-21T03:10:07;1.40;1.00
17146;DHT22;8688;54.444;18.444;2023-11-21T03:12:38;1.40;1.00
17146;DHT22;8688;54.444;18.444;2023-11-21T03:15:07;1.50;1.00
17146;DHT22;8688;54.444;18.444;2023-11-21T03:17:35;1.40;1.00
17146;DHT22;8688;54.444;18.444;2023-11-21T03:20:04;1.40;1.00
17146;DHT22;8688;54.444;18.444;2023-11-21T03:22:36;1.40;1.00
17146;DHT22;8688;54.444;18.444;2023-11-21T03:25:05;1.40;1.00
17146;DHT22;8688;54.444;18.444;2023-11-21T03:27:38;1.40;1.00
17146;DHT22;8688;54.444;18.444;2023-11-21T03:30:09;1.40;1.00
17146;DHT22;8688;54.444;18.444;2023-11-21T03:32:38;1.50;1.00
17146;DHT22;8688;54.444;18.444;2023-11-21T03:35:06;1.40;1.00
17146;DHT22;8688;54.444;18.444;2023-11-21T03:37:34;1.50;72.10
17146;DHT22;8688;54.444;18.444;2023-11-21T03:40:05;1.40;1.00
17146;DHT22;8688;54.444;18.444;2023-11-21T03:42:35;1.40;1.00
17146;DHT22;8688;54.444;18.444;2023-11-21T03:45:05;1.50;1.00
17146;DHT22;8688;54.444;18.444;2023-11-21T03:47:33;1.40;1.00
17146;DHT22;8688;54.444;18.444;2023-11-21T03:50:02;1.40;1.00
17146;DHT22;8688;54.444;18.444;2023-11-21T03:52:30;1.40;1.00
17146;DHT22;8688;54.444;18.444;2023-11-21T03:54:58;1.40;1.00
17146;DHT22;8688;54.444;18.444;2023-11-21T03:57:25;1.40;1.00
17146;DHT22;8688;54.444;18.444;2023-11-21T03:59:54;1.40;1.00
17146;DHT22;8688;54.444;18.444;2023-11-21T04:02:23;1.40;1.00
17146;DHT22;8688;54.444;18.444;2023-11-21T04:04:52;1.40;1.00
17146;DHT22;8688;54.444;18.444;2023-11-21T04:07:19;1.40;1.00
17146;DHT22;8688;54.444;18.444;2023-11-21T04:09:48;1.40;1.00
17146;DHT22;8688;54.444;18.444;2023-11-21T04:12:15;1.40;1.00
17146;DHT22;8688;54.444;18.444;2023-11-21T04:14:43;1.30;1.00
17146;DHT22;8688;54.444;18.444;2023-11-21T04:17:18;1.30;1.00
17146;DHT22;8688;54.444;18.444;2023-11-21T04:19:49;1.30;1.00
17146;DHT22;8688;54.444;18.444;2023-11-21T04:22:16;1.30;1.00
17146;DHT22;8688;54.444;18.444;2023-11-21T04:24:45;1.30;1.00
17146;DHT22;8688;54.444;18.444;2023-11-21T04:27:12;1.30;1.00
17146;DHT22;8688;54.444;18.444;2023-11-21T04:29:40;1.30;1.00
17146;DHT22;8688;54.444;18.444;2023-11-21T04:32:08;1.30;1.00
17146;DHT22;8688;54.444;18.444;2023-11-21T04:34:36;1.30;1.00
17146;DHT22;8688;54.444;18.444;2023-11-21T04:37:06;1.20;1.00
17146;DHT22;8688;54.444;18.444;2023-11-21T04:39:33;1.20;1.00
17146;DHT22;8688;54.444;18.444;2023-11-21T04:42:01;1.20;1.00
17146;DHT22;8688;54.444;18.444;2023-11-21T04:44:29;1.20;1.00
17146;DHT22;8688;54.444;18.444;2023-11-21T04:46:57;1.20;1.00
17146;DHT22;8688;54.444;18.444;2023-11-21T04:49:25;1.10;1.00
17146;DHT22;8688;54.444;18.444;2023-11-21T04:51:53;1.10;1.00
17146;DHT22;8688;54.444;18.444;2023-11-21T04:54:22;1.10;1.00
17146;DHT22;8688;54.444;18.444;2023-11-21T04:56:50;1.10;1.00
17146;DHT22;8688;54.444;18.444;2023-11-21T04:59:18;1.10;1.00
17146;DHT22;8688;54.444;18.444;2023-11-21T05:01:46;1.10;1.00
17146;DHT22;8688;54.444;18.444;2023-11-21T05:04:18;1.10;1.00
17146;DHT22;8688;54.444;18.444;2023-11-21T05:06:48;1.10;1.00
17146;DHT22;8688;54.444;18.444;2023-11-21T05:09:16;1.10;1.00
17146;DHT22;8688;54.444;18.444;2023-11-21T05:11:46;1.10;1.00
17146;DHT22;8688;54.444;18.444;2023-11-21T05:14:14;1.10;1.00
17146;DHT22;8688;54.444;18.444;2023-11-21T05:16:49;1.10;1.00
17146;DHT22;8688;54.444;18.444;2023-11-21T05:19:17;1.10;1.00
17146;DHT22;8688;54.444;18.444;2023-11-21T05:21:44;1.10;1.00
17146;DHT22;8688;54.444;18.444;2023-11-21T05:24:13;1.00;1.00
17146;DHT22;8688;54.444;18.444;2023-11-21T05:26:41;1.00;1.00
17146;DHT22;8688;54.444;18.444;2023-11-21T05:29:11;1.10;1.00
17146;DHT22;8688;54.444;18.444;2023-11-21T05:31:39;1.10;1.00
17146;DHT22;8688;54.444;18.444;2023-11-21T05:34:07;1.10;1.00
17146;DHT22;8688;54.444;18.444;2023-11-21T05:36:35;1.00;1.00
17146;DHT22;8688;54.444;18.444;2023-11-21T05:39:03;1.00;1.00
17146;DHT22;8688;54.444;18.444;2023-11-21T05:41:31;1.00;1.00
17146;DHT22;8688;54.444;18.444;2023-11-21T05:44:00;1.00;1.00
17146;DHT22;8688;54.444;18.444;2023-11-21T05:46:30;1.00;1.00
17146;DHT22;8688;54.444;18.444;2023-11-21T05:48:58;1.00;1.00
17146;DHT22;8688;54.444;18.444;2023-11-21T05:51:26;1.00;1.00
17146;DHT22;8688;54.444;18.444;2023-11-21T05:53:54;1.10;1.00
17146;DHT22;8688;54.444;18.444;2023-11-21T05:56:22;1.00;1.00
17146;DHT22;8688;54.444;18.444;2023-11-21T05:58:50;1.10;1.00
17146;DHT22;8688;54.444;18.444;2023-11-21T06:01:18;1.00;1.00
17146;DHT22;8688;54.444;18.444;2023-11-21T06:03:49;1.00;1.00
17146;DHT22;8688;54.444;18.444;2023-11-21T06:06:17;1.00;1.00
17146;DHT22;8688;54.444;18.444;2023-11-21T06:08:45;1.10;1.00
17146;DHT22;8688;54.444;18.444;2023-11-21T06:11:13;1.00;1.00
17146;DHT22;8688;54.444;18.444;2023-11-21T06:13:42;1.00;1.00
17146;DHT22;8688;54.444;18.444;2023-11-21T06:16:10;1.00;1.00
17146;DHT22;8688;54.444;18.444;2023-11-21T06:18:40;1.10;1.00
17146;DHT22;8688;54.444;18.444;2023-11-21T06:21:11;1.10;1.00
17146;DHT22;8688;54.444;18.444;2023-11-21T06:23:39;1.10;1.00
17146;DHT22;8688;54.444;18.444;2023-11-21T06:26:07;1.00;99.90
17146;DHT22;8688;54.444;18.444;2023-11-21T06:28:35;1.00;1.00
17146;DHT22;8688;54.444;18.444;2023-11-21T06:31:03;1.00;1.00
17146;DHT22;8688;54.444;18.444;2023-11-21T06:33:35;1.00;1.00
17146;DHT22;8688;54.444;18.444;2023-11-21T06:36:04;1.00;1.00
17146;DHT22;8688;54.444;18.444;2023-11-21T06:38:35;1.00;1.00
17146;DHT22;8688;54.444;18.444;2023-11-21T06:41:03;0.90;1.00
17146;DHT22;8688;54.444;18.444;2023-11-21T06:43:31;0.90;1.00
17146;DHT22;8688;54.444;18.444;2023-11-21T06:45:59;0.90;1.00
17146;DHT22;8688;54.444;18.444;2023-11-21T06:48:27;0.90;1.00
17146;DHT22;8688;54.444;18.444;2023-11-21T06:50:57;0.90;1.00
17146;DHT22;8688;54.444;18.444;2023-11-21T06:53:25;0.80;1.00
17146;DHT22;8688;54.444;18.444;2023-11-21T06:55:55;0.90;1.00
17146;DHT22;8688;54.444;18.444;2023-11-21T06:58:22;0.90;1.00
17146;DHT22;8688;54.444;18.444;2023-11-21T07:00:50;0.80;1.00
17146;DHT22;8688;54.444;18.444;2023-11-21T07:03:22;0.80;1.00
17146;DHT22;8688;54.444;18.444;2023-11-21T07:05:50;0.90;1.00
17146;DHT22;8688;54.444;18.444;2023-11-21T07:08:18;0.90;1.00
17146;DHT22;8688;54.444;18.444;2023-11-21T07:10:47;0.90;1.00
17146;DHT22;8688;54.444;18.444;2023-11-21T07:13:17;0.90;1.00
17146;DHT22;8688;54.444;18.444;2023-11-21T07:15:44;0.90;1.00
17146;DHT22;8688;54.444;18.444;2023-11-21T07:18:13;1.00;1.00
17146;DHT22;8688;54.444;18.444;2023-11-21T07:20:41;1.00;1.00
17146;DHT22;8688;54.444;18.444;2023-11-21T07:23:09;1.00;1.00
17146;DHT22;8688;54.444;18.444;2023-11-21T07:25:36;1.10;1.00
17146;DHT22;8688;54.444;18.444;2023-11-21T07:28:04;1.00;1.00
17146;DHT22;8688;54.444;18.444;2023-11-21T07:30:34;1.10;1.00
17146;DHT22;8688;54.444;18.444;2023-11-21T07:33:04;1.10;1.00
17146;DHT22;8688;54.444;18.444;2023-11-21T07:35:32;1.10;1.00
17146;DHT22;8688;54.444;18.444;2023-11-21T07:38:00;1.10;1.00
17146;DHT22;8688;54.444;18.444;2023-11-21T07:40:28;1.10;1.00
17146;DHT22;8688;54.444;18.444;2023-11-21T07:42:58;1.00;1.00
17146;DHT22;8688;54.444;18.444;2023-11-21T07:45:26;1.10;1.00
17146;DHT22;8688;54.444;18.444;2023-11-21T07:47:56;1.10;1.00
17146;DHT22;8688;54.444;18.444;2023-11-21T07:50:24;1.10;1.00
17146;DHT22;8688;54.444;18.444;2023-11-21T07:52:52;1.10;1.00
17146;DHT22;8688;54.444;18.444;2023-11-21T07:55:21;1.10;1.00
17146;DHT22;8688;54.444;18.444;2023-11-21T07:57:51;1.10;1.00
17146;DHT22;8688;54.444;18.444;2023-11-21T08:00:19;1.10;1.00
17146;DHT22;8688;54.444;18.444;2023-11-21T08:02:48;1.10;1.00
17146;DHT22;8688;54.444;18.444;2023-11-21T08:05:25;1.10;1.00
17146;DHT22;8688;54.444;18.444;2023-11-21T08:07:54;1.10;1.00
17146;DHT22;8688;54.444;18.444;2023-11-21T08:10:22;1.20;1.00
17146;DHT22;8688;54.444;18.444;2023-11-21T08:12:50;1.20;1.00
17146;DHT22;8688;54.444;18.444;2023-11-21T08:15:19;1.20;1.00
17146;DHT22;8688;54.444;18.444;2023-11-21T08:17:48;1.30;1.00
17146;DHT22;8688;54.444;18.444;2023-11-21T08:20:15;1.30;1.00
17146;DHT22;8688;54.444;18.444;2023-11-21T08:22:45;1.30;99.90
17146;DHT22;8688;54.444;18.444;2023-11-21T08:25:14;1.30;99.90
17146;DHT22;8688;54.444;18.444;2023-11-21T08:27:43;1.40;99.90
17146;DHT22;8688;54.444;18.444;2023-11-21T08:30:12;1.40;99.90
17146;DHT22;8688;54.444;18.444;2023-11-21T08:32:53;1.40;99.90
17146;DHT22;8688;54.444;18.444;2023-11-21T08:35:25;1.40;99.90
17146;DHT22;8688;54.444;18.444;2023-11-21T08:37:54;1.50;99.90
17146;DHT22;8688;54.444;18.444;2023-11-21T08:40:23;1.50;99.90
17146;DHT22;8688;54.444;18.444;2023-11-21T08:42:51;1.60;99.90
17146;DHT22;8688;54.444;18.444;2023-11-21T08:45:21;1.60;99.90
17146;DHT22;8688;54.444;18.444;2023-11-21T08:47:49;1.60;99.90
17146;DHT22;8688;54.444;18.444;2023-11-21T08:50:17;1.60;99.90
17146;DHT22;8688;54.444;18.444;2023-11-21T08:52:46;1.70;99.90
17146;DHT22;8688;54.444;18.444;2023-11-21T08:55:15;1.80;99.90
17146;DHT22;8688;54.444;18.444;2023-11-21T08:57:44;1.80;99.90
17146;DHT22;8688;54.444;18.444;2023-11-21T09:00:13;1.90;99.90
17146;DHT22;8688;54.444;18.444;2023-11-21T09:02:43;1.90;99.90
17146;DHT22;8688;54.444;18.444;2023-11-21T09:05:15;1.90;99.90
17146;DHT22;8688;54.444;18.444;2023-11-21T09:07:44;1.90;99.90
17146;DHT22;8688;54.444;18.444;2023-11-21T09:10:14;1.90;99.90
17146;DHT22;8688;54.444;18.444;2023-11-21T09:12:42;1.90;99.90
17146;DHT22;8688;54.444;18.444;2023-11-21T09:15:10;1.90;99.90
17146;DHT22;8688;54.444;18.444;2023-11-21T09:17:39;2.00;99.90
17146;DHT22;8688;54.444;18.444;2023-11-21T09:20:09;2.00;99.90
17146;DHT22;8688;54.444;18.444;2023-11-21T09:22:37;2.00;99.90
17146;DHT22;8688;54.444;18.444;2023-11-21T09:25:07;2.00;99.90
17146;DHT22;8688;54.444;18.444;2023-11-21T09:27:36;2.00;99.90
17146;DHT22;8688;54.444;18.444;2023-11-21T09:30:06;2.00;99.90
17146;DHT22;8688;54.444;18.444;2023-11-21T09:32:36;2.10;99.90
17146;DHT22;8688;54.444;18.444;2023-11-21T09:35:04;2.10;99.90
17146;DHT22;8688;54.444;18.444;2023-11-21T09:37:34;2.10;99.90
17146;DHT22;8688;54.444;18.444;2023-11-21T09:40:03;2.10;99.90
17146;DHT22;8688;54.444;18.444;2023-11-21T09:42:42;2.10;99.90
17146;DHT22;8688;54.444;18.444;2023-11-21T09:45:17;2.10;99.90
17146;DHT22;8688;54.444;18.444;2023-11-21T09:47:47;2.10;99.90
17146;DHT22;8688;54.444;18.444;2023-11-21T09:50:17;2.10;99.90
17146;DHT22;8688;54.444;18.444;2023-11-21T09:52:54;2.10;99.90
17146;DHT22;8688;54.444;18.444;2023-11-21T09:55:27;2.10;99.90
17146;DHT22;8688;54.444;18.444;2023-11-21T09:57:58;2.10;99.90
17146;DHT22;8688;54.444;18.444;2023-11-21T10:00:29;2.10;99.90
17146;DHT22;8688;54.444;18.444;2023-11-21T10:02:59;2.10;99.90
17146;DHT22;8688;54.444;18.444;2023-11-21T10:05:30;2.10;99.90
17146;DHT22;8688;54.444;18.444;2023-11-21T10:08:01;2.10;99.90
17146;DHT22;8688;54.444;18.444;2023-11-21T10:10:32;2.10;99.90
17146;DHT22;8688;54.444;18.444;2023-11-21T10:13:04;2.10;99.90
17146;DHT22;8688;54.444;18.444;2023-11-21T10:15:34;2.20;99.90
17146;DHT22;8688;54.444;18.444;2023-11-21T10:18:04;2.30;99.90
17146;DHT22;8688;54.444;18.444;2023-11-21T10:20:33;2.30;99.90
17146;DHT22;8688;54.444;18.444;2023-11-21T10:23:01;2.30;99.90
17146;DHT22;8688;54.444;18.444;2023-11-21T10:25:30;2.30;99.90
17146;DHT22;8688;54.444;18.444;2023-11-21T10:28:03;2.30;99.90
17146;DHT22;8688;54.444;18.444;2023-11-21T10:30:35;2.30;99.90
17146;DHT22;8688;54.444;18.444;2023-11-21T10:33:04;2.30;99.90
17146;DHT22;8688;54.444;18.444;2023-11-21T10:35:46;2.30;99.90
17146;DHT22;8688;54.444;18.444;2023-11-21T10:38:17;2.20;99.90
17146;DHT22;8688;54.444;18.444;2023-11-21T10:40:47;2.20;99.90
17146;DHT22;8688;54.444;18.444;2023-11-21T10:43:17;2.20;99.90
17146;DHT22;8688;54.444;18.444;2023-11-21T10:45:47;2.20;99.90
17146;DHT22;8688;54.444;18.444;2023-11-21T10:48:21;2.20;99.90
17146;DHT22;8688;54.444;18.444;2023-11-21T10:50:52;2.20;99.90
17146;DHT22;8688;54.444;18.444;2023-11-21T10:53:22;2.20;99.90
17146;DHT22;8688;54.444;18.444;2023-11-21T10:55:50;2.20;99.90
17146;DHT22;8688;54.444;18.444;2023-11-21T10:58:20;2.10;99.90
17146;DHT22;8688;54.444;18.444;2023-11-21T11:00:49;2.20;99.90
17146;DHT22;8688;54.444;18.444;2023-11-21T11:03:19;2.10;99.90
17146;DHT22;8688;54.444;18.444;2023-11-21T11:05:50;2.10;99.90
17146;DHT22;8688;54.444;18.444;2023-11-21T11:08:21;2.00;99.90
17146;DHT22;8688;54.444;18.444;2023-11-21T11:10:52;2.10;99.90
17146;DHT22;8688;54.444;18.444;2023-11-21T11:13:22;2.10;99.90
17146;DHT22;8688;54.444;18.444;2023-11-21T11:15:50;2.10;99.90
17146;DHT22;8688;54.444;18.444;2023-11-21T11:18:20;2.10;99.90
17146;DHT22;8688;54.444;18.444;2023-11-21T11:20:50;2.10;99.90
17146;DHT22;8688;54.444;18.444;2023-11-21T11:23:33;2.10;99.90
17146;DHT22;8688;54.444;18.444;2023-11-21T11:26:14;2.20;99.90
17146;DHT22;8688;54.444;18.444;2023-11-21T11:28:57;2.20;99.90
17146;DHT22;8688;54.444;18.444;2023-11-21T11:31:40;2.20;99.90
17146;DHT22;8688;54.444;18.444;2023-11-21T11:34:19;2.20;99.90
17146;DHT22;8688;54.444;18.444;2023-11-21T11:36:58;2.20;99.90
17146;DHT22;8688;54.444;18.444;2023-11-21T11:39:29;2.10;99.90
17146;DHT22;8688;54.444;18.444;2023-11-21T11:41:58;2.10;99.90
17146;DHT22;8688;54.444;18.444;2023-11-21T11:44:52;2.10;99.90
17146;DHT22;8688;54.444;18.444;2023-11-21T11:47:32;2.00;99.90
17146;DHT22;8688;54.444;18.444;2023-11-21T11:50:05;2.00;99.90
17146;DHT22;8688;54.444;18.444;2023-11-21T11:52:38;2.10;99.90
17146;DHT22;8688;54.444;18.444;2023-11-21T11:55:09;2.10;99.90
17146;DHT22;8688;54.444;18.444;2023-11-21T11:57:38;2.30;99.90
17146;DHT22;8688;54.444;18.444;2023-11-21T12:00:15;2.30;99.90
17146;DHT22;8688;54.444;18.444;2023-11-21T12:02:49;2.30;99.90
17146;DHT22;8688;54.444;18.444;2023-11-21T12:05:19;2.40;99.90
17146;DHT22;8688;54.444;18.444;2023-11-21T12:07:49;2.40;99.90
17146;DHT22;8688;54.444;18.444;2023-11-21T12:10:20;2.40;99.90
17146;DHT22;8688;54.444;18.444;2023-11-21T12:12:52;2.40;99.90
17146;DHT22;8688;54.444;18.444;2023-11-21T12:15:23;2.30;99.90
17146;DHT22;8688;54.444;18.444;2023-11-21T12:17:52;2.20;99.90
17146;DHT22;8688;54.444;18.444;2023-11-21T12:20:21;2.10;99.90
17146;DHT22;8688;54.444;18.444;2023-11-21T12:22:50;2.10;99.90
17146;DHT22;8688;54.444;18.444;2023-11-21T12:25:19;2.10;99.90
17146;DHT22;8688;54.444;18.444;2023-11-21T12:27:49;2.10;99.90
17146;DHT22;8688;54.444;18.444;2023-11-21T12:30:19;2.00;99.90
17146;DHT22;8688;54.444;18.444;2023-11-21T12:32:51;2.00;99.90
17146;DHT22;8688;54.444;18.444;2023-11-21T12:35:19;1.90;99.90
17146;DHT22;8688;54.444;18.444;2023-11-21T12:37:48;1.90;99.90
17146;DHT22;8688;54.444;18.444;2023-11-21T12:40:17;1.90;99.90
17146;DHT22;8688;54.444;18.444;2023-11-21T12:42:47;1.90;99.90
17146;DHT22;8688;54.444;18.444;2023-11-21T12:45:22;1.90;99.90
17146;DHT22;8688;54.444;18.444;2023-11-21T12:47:56;1.90;99.90
17146;DHT22;8688;54.444;18.444;2023-11-21T12:50:28;2.00;99.90
17146;DHT22;8688;54.444;18.444;2023-11-21T12:53:00;2.10;99.90
17146;DHT22;8688;54.444;18.444;2023-11-21T12:55:31;2.10;99.90
17146;DHT22;8688;54.444;18.444;2023-11-21T12:58:02;2.10;99.90
17146;DHT22;8688;54.444;18.444;2023-11-21T13:00:37;2.20;99.90
17146;DHT22;8688;54.444;18.444;2023-11-21T13:03:08;2.30;99.90
17146;DHT22;8688;54.444;18.444;2023-11-21T13:05:37;2.30;99.90
17146;DHT22;8688;54.444;18.444;2023-11-21T13:08:07;2.40;99.90
17146;DHT22;8688;54.444;18.444;2023-11-21T13:10:36;2.40;99.90
17146;DHT22;8688;54.444;18.444;2023-11-21T13:13:06;2.50;99.90
17146;DHT22;8688;54.444;18.444;2023-11-21T13:15:39;2.50;99.90
17146;DHT22;8688;54.444;18.444;2023-11-21T13:18:09;2.60;99.90
17146;DHT22;8688;54.444;18.444;2023-11-21T13:20:39;2.60;99.90
17146;DHT22;8688;54.444;18.444;2023-11-21T13:23:08;2.70;99.90
17146;DHT22;8688;54.444;18.444;2023-11-21T13:25:38;2.70;99.90
17146;DHT22;8688;54.444;18.444;2023-11-21T13:28:07;2.70;99.90
17146;DHT22;8688;54.444;18.444;2023-11-21T13:30:38;2.70;99.90
17146;DHT22;8688;54.444;18.444;2023-11-21T13:33:08;2.60;99.90
17146;DHT22;8688;54.444;18.444;2023-11-21T13:35:44;2.60;99.90
17146;DHT22;8688;54.444;18.444;2023-11-21T13:38:18;2.60;99.90
17146;DHT22;8688;54.444;18.444;2023-11-21T13:40:52;2.50;99.90
17146;DHT22;8688;54.444;18.444;2023-11-21T13:43:22;2.60;99.90
17146;DHT22;8688;54.444;18.444;2023-11-21T13:45:52;2.50;99.90
17146;DHT22;8688;54.444;18.444;2023-11-21T13:48:27;2.50;99.90
17146;DHT22;8688;54.444;18.444;2023-11-21T13:51:00;2.50;99.90
17146;DHT22;8688;54.444;18.444;2023-11-21T13:53:37;2.40;99.90
17146;DHT22;8688;54.444;18.444;2023-11-21T13:56:07;2.40;99.90
17146;DHT22;8688;54.444;18.444;2023-11-21T13:58:35;2.40;99.90
17146;DHT22;8688;54.444;18.444;2023-11-21T14:01:10;2.40;99.90
17146;DHT22;8688;54.444;18.444;2023-11-21T14:04:01;2.30;99.90
17146;DHT22;8688;54.444;18.444;2023-11-21T14:06:38;2.30;99.90
17146;DHT22;8688;54.444;18.444;2023-11-21T14:09:18;2.40;99.90
17146;DHT22;8688;54.444;18.444;2023-11-21T14:11:53;2.30;99.90
17146;DHT22;8688;54.444;18.444;2023-11-21T14:14:26;2.30;99.90
17146;DHT22;8688;54.444;18.444;2023-11-21T14:16:54;2.30;99.90
17146;DHT22;8688;54.444;18.444;2023-11-21T14:19:25;2.30;99.90
17146;DHT22;8688;54.444;18.444;2023-11-21T14:21:57;2.30;99.90
17146;DHT22;8688;54.444;18.444;2023-11-21T14:24:26;2.30;99.90
17146;DHT22;8688;54.444;18.444;2023-11-21T14:26:56;2.30;99.90
17146;DHT22;8688;54.444;18.444;2023-11-21T14:29:25;2.30;99.90
17146;DHT22;8688;54.444;18.444;2023-11-21T14:31:57;2.20;99.90
17146;DHT22;8688;54.444;18.444;2023-11-21T14:34:27;2.20;99.90
17146;DHT22;8688;54.444;18.444;2023-11-21T14:36:55;2.20;99.90
17146;DHT22;8688;54.444;18.444;2023-11-21T14:39:24;2.20;99.90
17146;DHT22;8688;54.444;18.444;2023-11-21T14:41:54;2.20;99.90
17146;DHT22;8688;54.444;18.444;2023-11-21T14:44:24;2.20;99.90
17146;DHT22;8688;54.444;18.444;2023-11-21T14:46:54;2.20;99.90
17146;DHT22;8688;54.444;18.444;2023-11-21T14:49:22;2.20;99.90
17146;DHT22;8688;54.444;18.444;2023-11-21T14:51:55;2.20;99.90
17146;DHT22;8688;54.444;18.444;2023-11-21T14:54:29;2.20;99.90
17146;DHT22;8688;54.444;18.444;2023-11-21T14:57:10;2.20;99.90
17146;DHT22;8688;54.444;18.444;2023-11-21T14:59:44;2.20;99.90
17146;DHT22;8688;54.444;18.444;2023-11-21T15:02:13;2.10;99.90
17146;DHT22;8688;54.444;18.444;2023-11-21T15:04:43;2.10;99.90
17146;DHT22;8688;54.444;18.444;2023-11-21T15:07:11;2.00;99.90
17146;DHT22;8688;54.444;18.444;2023-11-21T15:09:39;1.90;99.90
17146;DHT22;8688;54.444;18.444;2023-11-21T15:12:08;1.90;99.90
17146;DHT22;8688;54.444;18.444;2023-11-21T15:14:43;1.80;99.90
17146;DHT22;8688;54.444;18.444;2023-11-21T15:17:12;1.80;99.90
17146;DHT22;8688;54.444;18.444;2023-11-21T15:19:45;1.80;99.90
17146;DHT22;8688;54.444;18.444;2023-11-21T15:22:14;1.70;99.90
17146;DHT22;8688;54.444;18.444;2023-11-21T15:24:43;1.70;99.90
17146;DHT22;8688;54.444;18.444;2023-11-21T15:27:14;1.60;99.90
17146;DHT22;8688;54.444;18.444;2023-11-21T15:29:42;1.50;99.90
17146;DHT22;8688;54.444;18.444;2023-11-21T15:32:10;1.50;99.90
17146;DHT22;8688;54.444;18.444;2023-11-21T15:34:38;1.50;99.90
17146;DHT22;8688;54.444;18.444;2023-11-21T15:37:08;1.50;99.90
17146;DHT22;8688;54.444;18.444;2023-11-21T15:39:39;1.50;99.90
17146;DHT22;8688;54.444;18.444;2023-11-21T15:42:11;1.50;99.90
17146;DHT22;8688;54.444;18.444;2023-11-21T15:44:40;1.50;99.90
17146;DHT22;8688;54.444;18.444;2023-11-21T15:47:08;1.60;99.90
17146;DHT22;8688;54.444;18.444;2023-11-21T15:49:37;1.60;99.90
17146;DHT22;8688;54.444;18.444;2023-11-21T15:52:05;1.60;99.90
17146;DHT22;8688;54.444;18.444;2023-11-21T15:54:39;1.60;99.90
17146;DHT22;8688;54.444;18.444;2023-11-21T15:57:07;1.60;99.90
17146;DHT22;8688;54.444;18.444;2023-11-21T15:59:39;1.50;99.90
17146;DHT22;8688;54.444;18.444;2023-11-21T16:02:09;1.40;99.90
17146;DHT22;8688;54.444;18.444;2023-11-21T16:04:37;1.30;99.90
17146;DHT22;8688;54.444;18.444;2023-11-21T16:07:06;1.20;99.90
17146;DHT22;8688;54.444;18.444;2023-11-21T16:09:34;1.10;99.90
17146;DHT22;8688;54.444;18.444;2023-11-21T16:12:06;1.10;99.90